sensor_id;sensor_type;location;lat;lon;timestamp;pressure;altitude;pressure_sealevel;temperature
67509;BMP280;54354;44.724;11.284;2022-10-31T00:00:50;102184.63;;;20.57
67509;BMP280;54354;44.724;11.284;2022-10-31T00:03:16;102175.94;;;20.53
67509;BMP280;54354;44.724;11.284;2022-10-31T00:05:45;102174.91;;;20.51
67509;BMP280;54354;44.724;11.284;2022-10-31T00:08:10;102181.75;;;20.52
67509;BMP280;54354;44.724;11.284;2022-10-31T00:10:42;102178.00;;;20.49
67509;BMP280;54354;44.724;11.284;2022-10-31T00:13:09;102185.66;;;20.51
67509;BMP280;54354;44.724;11.284;2022-10-31T00:15:37;102180.69;;;20.49
67509;BMP280;54354;44.724;11.284;2022-10-31T00:18:04;102179.19;;;20.48
67509;BMP280;54354;44.724;11.284;2022-10-31T00:20:30;102183.81;;;20.48
67509;BMP280;54354;44.724;11.284;2022-10-31T00:23:02;102191.25;;;20.43
67509;BMP280;54354;44.724;11.284;2022-10-31T00:25:32;102186.22;;;20.46
67509;BMP280;54354;44.724;11.284;2022-10-31T00:27:57;102186.63;;;20.44
67509;BMP280;54354;44.724;11.284;2022-10-31T00:30:23;102187.81;;;20.43
67509;BMP280;54354;44.724;11.284;2022-10-31T00:32:48;102182.91;;;20.41
67509;BMP280;54354;44.724;11.284;2022-10-31T00:35:14;102180.63;;;20.40
67509;BMP280;54354;44.724;11.284;2022-10-31T00:37:42;102184.22;;;20.37
67509;BMP280;54354;44.724;11.284;2022-10-31T00:40:08;102182.41;;;20.34
67509;BMP280;54354;44.724;11.284;2022-10-31T00:42:33;102184.03;;;20.31
67509;BMP280;54354;44.724;11.284;2022-10-31T00:44:59;102188.66;;;20.31
67509;BMP280;54354;44.724;11.284;2022-10-31T00:47:24;102186.84;;;20.28
67509;BMP280;54354;44.724;11.284;2022-10-31T00:49:50;102183.81;;;20.26
67509;BMP280;54354;44.724;11.284;2022-10-31T00:52:15;102185.16;;;20.21
67509;BMP280;54354;44.724;11.284;2022-10-31T00:54:41;102179.06;;;20.21
67509;BMP280;54354;44.724;11.284;2022-10-31T00:57:07;102188.28;;;20.20
67509;BMP280;54354;44.724;11.284;2022-10-31T01:14:46;102175.25;;;19.96
67509;BMP280;54354;44.724;11.284;2022-10-31T01:17:13;102175.19;;;19.87
67509;BMP280;54354;44.724;11.284;2022-10-31T01:19:38;102170.69;;;19.84
67509;BMP280;54354;44.724;11.284;2022-10-31T01:22:04;102177.25;;;19.83
67509;BMP280;54354;44.724;11.284;2022-10-31T01:24:29;102177.69;;;19.81
67509;BMP280;54354;44.724;11.284;2022-10-31T01:26:55;102175.13;;;19.78
67509;BMP280;54354;44.724;11.284;2022-10-31T01:29:20;102173.19;;;19.78
67509;BMP280;54354;44.724;11.284;2022-10-31T01:31:46;102176.66;;;19.79
67509;BMP280;54354;44.724;11.284;2022-10-31T01:34:16;102171.81;;;19.74
67509;BMP280;54354;44.724;11.284;2022-10-31T01:36:42;102175.13;;;19.78
67509;BMP280;54354;44.724;11.284;2022-10-31T01:39:13;102171.38;;;19.75
67509;BMP280;54354;44.724;11.284;2022-10-31T01:41:42;102173.66;;;19.77
67509;BMP280;54354;44.724;11.284;2022-10-31T01:49:14;102174.84;;;19.76
67509;BMP280;54354;44.724;11.284;2022-10-31T01:51:43;102166.91;;;20.16
67509;BMP280;54354;44.724;11.284;2022-10-31T01:54:12;102174.13;;;19.84
67509;BMP280;54354;44.724;11.284;2022-10-31T01:56:42;102165.13;;;19.78
67509;BMP280;54354;44.724;11.284;2022-10-31T01:59:13;102167.94;;;19.75
67509;BMP280;54354;44.724;11.284;2022-10-31T02:01:40;102173.31;;;19.75
67509;BMP280;54354;44.724;11.284;2022-10-31T02:04:06;102166.44;;;19.74
67509;BMP280;54354;44.724;11.284;2022-10-31T02:06:38;102171.63;;;19.68
67509;BMP280;54354;44.724;11.284;2022-10-31T02:09:06;102168.50;;;19.70
67509;BMP280;54354;44.724;11.284;2022-10-31T02:11:34;102160.25;;;19.64
67509;BMP280;54354;44.724;11.284;2022-10-31T02:14:01;102157.97;;;19.63
67509;BMP280;54354;44.724;11.284;2022-10-31T02:16:26;102162.94;;;19.64
67509;BMP280;54354;44.724;11.284;2022-10-31T02:18:54;102154.53;;;19.62
67509;BMP280;54354;44.724;11.284;2022-10-31T02:29:57;102148.56;;;19.58
67509;BMP280;54354;44.724;11.284;2022-10-31T02:32:37;102161.66;;;19.56
67509;BMP280;54354;44.724;11.284;2022-10-31T02:35:17;102147.69;;;19.48
67509;BMP280;54354;44.724;11.284;2022-10-31T02:43:31;102158.03;;;19.50
67509;BMP280;54354;44.724;11.284;2022-10-31T02:46:03;102165.34;;;19.49
67509;BMP280;54354;44.724;11.284;2022-10-31T02:48:37;102154.38;;;19.44
67509;BMP280;54354;44.724;11.284;2022-10-31T02:51:04;102153.06;;;19.83
67509;BMP280;54354;44.724;11.284;2022-10-31T02:53:34;102165.63;;;19.51
67509;BMP280;54354;44.724;11.284;2022-10-31T02:56:08;102157.59;;;19.86
67509;BMP280;54354;44.724;11.284;2022-10-31T02:58:58;102158.03;;;19.50
67509;BMP280;54354;44.724;11.284;2022-10-31T03:04:02;102155.78;;;19.36
67509;BMP280;54354;44.724;11.284;2022-10-31T03:09:41;102163.72;;;19.39
67509;BMP280;54354;44.724;11.284;2022-10-31T03:12:27;102167.28;;;19.36
67509;BMP280;54354;44.724;11.284;2022-10-31T03:18:16;102164.38;;;19.31
67509;BMP280;54354;44.724;11.284;2022-10-31T03:20:20;102173.53;;;19.33
67509;BMP280;54354;44.724;11.284;2022-10-31T03:22:48;102178.03;;;19.36
67509;BMP280;54354;44.724;11.284;2022-10-31T03:25:13;102169.22;;;19.36
67509;BMP280;54354;44.724;11.284;2022-10-31T03:27:42;102165.91;;;19.32
67509;BMP280;54354;44.724;11.284;2022-10-31T03:30:09;102171.56;;;19.34
67509;BMP280;54354;44.724;11.284;2022-10-31T03:32:55;102159.00;;;19.31
67509;BMP280;54354;44.724;11.284;2022-10-31T03:35:24;102156.00;;;19.28
67509;BMP280;54354;44.724;11.284;2022-10-31T03:37:52;102163.31;;;19.28
67509;BMP280;54354;44.724;11.284;2022-10-31T03:40:20;102157.31;;;19.24
67509;BMP280;54354;44.724;11.284;2022-10-31T03:42:53;102160.09;;;19.20
67509;BMP280;54354;44.724;11.284;2022-10-31T03:45:24;102162.47;;;19.18
67509;BMP280;54354;44.724;11.284;2022-10-31T03:47:51;102171.97;;;19.57
67509;BMP280;54354;44.724;11.284;2022-10-31T03:50:18;102161.38;;;19.28
67509;BMP280;54354;44.724;11.284;2022-10-31T03:52:49;102162.47;;;19.18
67509;BMP280;54354;44.724;11.284;2022-10-31T03:55:19;102167.22;;;19.14
67509;BMP280;54354;44.724;11.284;2022-10-31T03:57:50;102166.13;;;19.12
67509;BMP280;54354;44.724;11.284;2022-10-31T04:00:18;102167.31;;;19.11
67509;BMP280;54354;44.724;11.284;2022-10-31T04:02:53;102165.19;;;19.06
67509;BMP280;54354;44.724;11.284;2022-10-31T04:05:21;102166.38;;;19.05
67509;BMP280;54354;44.724;11.284;2022-10-31T04:07:51;102166.91;;;18.99
67509;BMP280;54354;44.724;11.284;2022-10-31T04:10:17;102165.53;;;19.42
67509;BMP280;54354;44.724;11.284;2022-10-31T04:12:49;102165.81;;;19.10
67509;BMP280;54354;44.724;11.284;2022-10-31T04:15:26;102157.53;;;19.04
67509;BMP280;54354;44.724;11.284;2022-10-31T04:17:55;102167.75;;;18.96
67509;BMP280;54354;44.724;11.284;2022-10-31T04:20:32;102164.44;;;18.92
67509;BMP280;54354;44.724;11.284;2022-10-31T04:22:59;102167.09;;;18.92
67509;BMP280;54354;44.724;11.284;2022-10-31T04:25:25;102169.47;;;18.90
67509;BMP280;54354;44.724;11.284;2022-10-31T04:27:53;102169.88;;;18.89
67509;BMP280;54354;44.724;11.284;2022-10-31T04:30:18;102171.81;;;18.88
67509;BMP280;54354;44.724;11.284;2022-10-31T04:32:44;102169.59;;;18.87
67509;BMP280;54354;44.724;11.284;2022-10-31T04:35:09;102177.19;;;18.88
67509;BMP280;54354;44.724;11.284;2022-10-31T04:37:36;102179.56;;;18.86
67509;BMP280;54354;44.724;11.284;2022-10-31T04:40:02;102178.06;;;18.85
67509;BMP280;54354;44.724;11.284;2022-10-31T04:42:57;102182.25;;;18.86
67509;BMP280;54354;44.724;11.284;2022-10-31T04:45:23;102185.00;;;18.83
67509;BMP280;54354;44.724;11.284;2022-10-31T04:47:51;102183.53;;;18.82
67509;BMP280;54354;44.724;11.284;2022-10-31T04:50:17;102175.88;;;18.80
67509;BMP280;54354;44.724;11.284;2022-10-31T04:52:45;102174.84;;;18.78
67509;BMP280;54354;44.724;11.284;2022-10-31T04:55:13;102181.59;;;18.82
67509;BMP280;54354;44.724;11.284;2022-10-31T04:57:57;102186.22;;;18.82
67509;BMP280;54354;44.724;11.284;2022-10-31T05:00:24;102170.94;;;18.79
67509;BMP280;54354;44.724;11.284;2022-10-31T05:02:52;102176.75;;;18.77
67509;BMP280;54354;44.724;11.284;2022-10-31T05:05:20;102171.59;;;18.70
67509;BMP280;54354;44.724;11.284;2022-10-31T05:07:47;102164.00;;;18.68
67509;BMP280;54354;44.724;11.284;2022-10-31T05:10:15;102165.25;;;18.64
67509;BMP280;54354;44.724;11.284;2022-10-31T05:12:49;102167.19;;;18.63
67509;BMP280;54354;44.724;11.284;2022-10-31T05:15:35;102171.59;;;18.70
67509;BMP280;54354;44.724;11.284;2022-10-31T05:18:38;102180.09;;;18.68
67509;BMP280;54354;44.724;11.284;2022-10-31T05:21:39;102172.56;;;18.63
67509;BMP280;54354;44.724;11.284;2022-10-31T05:24:05;102182.97;;;18.61
67509;BMP280;54354;44.724;11.284;2022-10-31T05:26:32;102178.78;;;18.60
67509;BMP280;54354;44.724;11.284;2022-10-31T05:28:58;102176.53;;;18.59
67509;BMP280;54354;44.724;11.284;2022-10-31T05:31:24;102173.09;;;18.58
67509;BMP280;54354;44.724;11.284;2022-10-31T05:33:51;102170.41;;;18.58
67509;BMP280;54354;44.724;11.284;2022-10-31T05:36:36;102178.03;;;18.60
67509;BMP280;54354;44.724;11.284;2022-10-31T05:39:09;102178.09;;;18.56
67509;BMP280;54354;44.724;11.284;2022-10-31T05:41:40;102169.75;;;18.54
67509;BMP280;54354;44.724;11.284;2022-10-31T05:44:19;102170.50;;;18.55
67509;BMP280;54354;44.724;11.284;2022-10-31T05:47:16;102183.94;;;18.55
67509;BMP280;54354;44.724;11.284;2022-10-31T05:49:54;102179.41;;;18.52
67509;BMP280;54354;44.724;11.284;2022-10-31T05:52:38;102179.41;;;18.52
67509;BMP280;54354;44.724;11.284;2022-10-31T05:55:17;102180.56;;;18.51
67509;BMP280;54354;44.724;11.284;2022-10-31T05:57:57;102180.22;;;18.90
67509;BMP280;54354;44.724;11.284;2022-10-31T06:00:24;102184.06;;;18.64
67509;BMP280;54354;44.724;11.284;2022-10-31T06:03:07;102183.59;;;18.53
67509;BMP280;54354;44.724;11.284;2022-10-31T06:05:55;102185.00;;;18.57
67509;BMP280;54354;44.724;11.284;2022-10-31T06:08:24;102191.13;;;18.58
67509;BMP280;54354;44.724;11.284;2022-10-31T06:10:50;102200.03;;;18.55
67509;BMP280;54354;44.724;11.284;2022-10-31T06:13:23;102203.44;;;18.55
67509;BMP280;54354;44.724;11.284;2022-10-31T06:16:08;102201.09;;;18.57
67509;BMP280;54354;44.724;11.284;2022-10-31T06:18:36;102204.94;;;18.56
67509;BMP280;54354;44.724;11.284;2022-10-31T06:21:02;102203.91;;;18.54
67509;BMP280;54354;44.724;11.284;2022-10-31T06:23:28;102212.69;;;18.54
67509;BMP280;54354;44.724;11.284;2022-10-31T06:26:13;102203.78;;;18.57
67509;BMP280;54354;44.724;11.284;2022-10-31T06:28:39;102206.47;;;18.57
67509;BMP280;54354;44.724;11.284;2022-10-31T06:31:29;102210.53;;;18.62
67509;BMP280;54354;44.724;11.284;2022-10-31T06:33:55;102214.41;;;18.61
67509;BMP280;54354;44.724;11.284;2022-10-31T06:36:20;102215.50;;;18.63
67509;BMP280;54354;44.724;11.284;2022-10-31T06:38:46;102213.78;;;18.69
67509;BMP280;54354;44.724;11.284;2022-10-31T06:41:12;102211.44;;;18.71
67509;BMP280;54354;44.724;11.284;2022-10-31T06:43:42;102205.41;;;18.80
67509;BMP280;54354;44.724;11.284;2022-10-31T06:46:41;102212.44;;;18.90
67509;BMP280;54354;44.724;11.284;2022-10-31T06:49:33;102214.59;;;18.95
67509;BMP280;54354;44.724;11.284;2022-10-31T06:52:01;102218.31;;;18.98
67509;BMP280;54354;44.724;11.284;2022-10-31T06:54:27;102222.28;;;19.06
67509;BMP280;54354;44.724;11.284;2022-10-31T06:56:53;102216.75;;;19.13
67509;BMP280;54354;44.724;11.284;2022-10-31T06:59:19;102223.09;;;19.19
67509;BMP280;54354;44.724;11.284;2022-10-31T07:02:11;102217.78;;;19.28
67509;BMP280;54354;44.724;11.284;2022-10-31T07:04:38;102222.31;;;19.32
67509;BMP280;54354;44.724;11.284;2022-10-31T07:07:03;102227.13;;;19.37
67509;BMP280;54354;44.724;11.284;2022-10-31T07:09:30;102230.03;;;19.42
67509;BMP280;54354;44.724;11.284;2022-10-31T07:11:59;102232.81;;;19.51
67509;BMP280;54354;44.724;11.284;2022-10-31T07:14:25;102233.50;;;19.55
67509;BMP280;54354;44.724;11.284;2022-10-31T07:16:52;102234.13;;;19.60
67509;BMP280;54354;44.724;11.284;2022-10-31T07:19:23;102228.81;;;19.69
67509;BMP280;54354;44.724;11.284;2022-10-31T07:21:49;102237.41;;;19.76
67509;BMP280;54354;44.724;11.284;2022-10-31T07:24:14;102239.44;;;19.85
67509;BMP280;54354;44.724;11.284;2022-10-31T07:26:43;102235.44;;;19.90
67509;BMP280;54354;44.724;11.284;2022-10-31T07:29:12;102244.00;;;19.97
67509;BMP280;54354;44.724;11.284;2022-10-31T07:31:37;102238.38;;;20.04
67509;BMP280;54354;44.724;11.284;2022-10-31T07:34:10;102242.03;;;20.10
67509;BMP280;54354;44.724;11.284;2022-10-31T07:36:54;102250.28;;;20.16
67509;BMP280;54354;44.724;11.284;2022-10-31T07:39:19;102242.09;;;20.20
67509;BMP280;54354;44.724;11.284;2022-10-31T07:41:45;102241.97;;;20.23
67509;BMP280;54354;44.724;11.284;2022-10-31T07:44:10;102237.97;;;20.28
67509;BMP280;54354;44.724;11.284;2022-10-31T07:47:14;102246.84;;;20.37
67509;BMP280;54354;44.724;11.284;2022-10-31T07:50:07;102244.81;;;20.41
67509;BMP280;54354;44.724;11.284;2022-10-31T07:53:06;102231.97;;;20.46
67509;BMP280;54354;44.724;11.284;2022-10-31T07:55:52;102250.88;;;20.55
67509;BMP280;54354;44.724;11.284;2022-10-31T07:58:18;102251.16;;;20.57
67509;BMP280;54354;44.724;11.284;2022-10-31T08:00:46;102254.16;;;20.59
67509;BMP280;54354;44.724;11.284;2022-10-31T08:03:17;102248.66;;;20.62
67509;BMP280;54354;44.724;11.284;2022-10-31T08:06:01;102255.56;;;20.72
67509;BMP280;54354;44.724;11.284;2022-10-31T08:08:44;102252.63;;;20.80
67509;BMP280;54354;44.724;11.284;2022-10-31T08:11:10;102257.44;;;20.85
67509;BMP280;54354;44.724;11.284;2022-10-31T08:13:37;102257.63;;;20.90
67509;BMP280;54354;44.724;11.284;2022-10-31T08:16:02;102255.41;;;20.98
67509;BMP280;54354;44.724;11.284;2022-10-31T08:18:31;102258.25;;;21.04
67509;BMP280;54354;44.724;11.284;2022-10-31T08:20:57;102259.63;;;21.08
67509;BMP280;54354;44.724;11.284;2022-10-31T08:23:23;102260.88;;;21.16
67509;BMP280;54354;44.724;11.284;2022-10-31T08:25:51;102267.16;;;21.22
67509;BMP280;54354;44.724;11.284;2022-10-31T08:28:17;102257.63;;;21.30
67509;BMP280;54354;44.724;11.284;2022-10-31T08:30:45;102264.34;;;21.35
67509;BMP280;54354;44.724;11.284;2022-10-31T08:33:30;102255.88;;;21.46
67509;BMP280;54354;44.724;11.284;2022-10-31T08:36:14;102260.22;;;21.52
67509;BMP280;54354;44.724;11.284;2022-10-31T08:39:05;102261.69;;;21.63
67509;BMP280;54354;44.724;11.284;2022-10-31T08:41:31;102252.28;;;21.67
67509;BMP280;54354;44.724;11.284;2022-10-31T08:43:58;102257.09;;;21.72
67509;BMP280;54354;44.724;11.284;2022-10-31T08:46:24;102261.44;;;21.79
67509;BMP280;54354;44.724;11.284;2022-10-31T08:48:50;102268.78;;;21.87
67509;BMP280;54354;44.724;11.284;2022-10-31T08:51:17;102268.94;;;21.93
67509;BMP280;54354;44.724;11.284;2022-10-31T08:53:42;102261.72;;;21.99
67509;BMP280;54354;44.724;11.284;2022-10-31T08:56:35;102263.41;;;22.06
67509;BMP280;54354;44.724;11.284;2022-10-31T08:59:04;102266.69;;;22.10
67509;BMP280;54354;44.724;11.284;2022-10-31T09:01:46;102262.16;;;22.16
67509;BMP280;54354;44.724;11.284;2022-10-31T09:04:12;102272.38;;;22.21
67509;BMP280;54354;44.724;11.284;2022-10-31T09:06:37;102260.66;;;22.24
67509;BMP280;54354;44.724;11.284;2022-10-31T09:09:03;102265.91;;;22.28
67509;BMP280;54354;44.724;11.284;2022-10-31T09:11:30;102249.53;;;22.31
67509;BMP280;54354;44.724;11.284;2022-10-31T09:14:14;102254.63;;;22.38
67509;BMP280;54354;44.724;11.284;2022-10-31T09:16:58;102256.44;;;22.41
67509;BMP280;54354;44.724;11.284;2022-10-31T09:19:37;102260.00;;;22.47
67509;BMP280;54354;44.724;11.284;2022-10-31T09:22:04;102251.00;;;22.51
67509;BMP280;54354;44.724;11.284;2022-10-31T09:24:31;102261.94;;;22.56
67509;BMP280;54354;44.724;11.284;2022-10-31T09:26:58;102254.44;;;22.60
67509;BMP280;54354;44.724;11.284;2022-10-31T09:29:26;102258.91;;;22.63
67509;BMP280;54354;44.724;11.284;2022-10-31T09:31:56;102248.53;;;22.71
67509;BMP280;54354;44.724;11.284;2022-10-31T09:34:29;102250.03;;;22.72
67509;BMP280;54354;44.724;11.284;2022-10-31T09:37:13;102252.56;;;22.75
67509;BMP280;54354;44.724;11.284;2022-10-31T09:39:39;102240.84;;;22.78
67509;BMP280;54354;44.724;11.284;2022-10-31T09:51:20;102252.91;;;23.01
67509;BMP280;54354;44.724;11.284;2022-10-31T09:54:14;102246.47;;;22.99
67509;BMP280;54354;44.724;11.284;2022-10-31T09:56:40;102242.53;;;23.00
67509;BMP280;54354;44.724;11.284;2022-10-31T09:59:12;102250.81;;;22.96
67509;BMP280;54354;44.724;11.284;2022-10-31T10:02:04;102247.94;;;23.00
67509;BMP280;54354;44.724;11.284;2022-10-31T10:04:41;102255.88;;;23.03
67509;BMP280;54354;44.724;11.284;2022-10-31T10:16:29;102241.41;;;23.16
67509;BMP280;54354;44.724;11.284;2022-10-31T10:19:23;102240.94;;;23.17
67509;BMP280;54354;44.724;11.284;2022-10-31T10:21:53;102241.38;;;23.25
67509;BMP280;54354;44.724;11.284;2022-10-31T10:30:13;102234.66;;;23.35
67509;BMP280;54354;44.724;11.284;2022-10-31T10:32:57;102233.56;;;23.42
67509;BMP280;54354;44.724;11.284;2022-10-31T10:35:29;102236.00;;;23.40
67509;BMP280;54354;44.724;11.284;2022-10-31T10:38:19;102238.63;;;23.49
67509;BMP280;54354;44.724;11.284;2022-10-31T10:40:47;102228.38;;;23.53
67509;BMP280;54354;44.724;11.284;2022-10-31T10:43:20;102225.66;;;23.53
67509;BMP280;54354;44.724;11.284;2022-10-31T10:46:04;102213.91;;;23.56
67509;BMP280;54354;44.724;11.284;2022-10-31T10:51:47;102212.16;;;23.67
67509;BMP280;54354;44.724;11.284;2022-10-31T10:59:56;102210.59;;;23.76
67509;BMP280;54354;44.724;11.284;2022-10-31T11:02:26;102199.78;;;23.76
67509;BMP280;54354;44.724;11.284;2022-10-31T11:04:54;102207.53;;;23.83
67509;BMP280;54354;44.724;11.284;2022-10-31T11:07:21;102201.91;;;23.86
67509;BMP280;54354;44.724;11.284;2022-10-31T11:09:47;102199.03;;;23.90
67509;BMP280;54354;44.724;11.284;2022-10-31T11:12:22;102192.69;;;23.93
67509;BMP280;54354;44.724;11.284;2022-10-31T11:14:56;102187.84;;;23.97
67509;BMP280;54354;44.724;11.284;2022-10-31T11:17:39;102187.44;;;24.04
67509;BMP280;54354;44.724;11.284;2022-10-31T11:20:27;102182.13;;;24.10
67509;BMP280;54354;44.724;11.284;2022-10-31T11:23:16;102175.78;;;24.13
67509;BMP280;54354;44.724;11.284;2022-10-31T11:25:50;102171.38;;;24.15
67509;BMP280;54354;44.724;11.284;2022-10-31T11:28:16;102171.25;;;24.24
67509;BMP280;54354;44.724;11.284;2022-10-31T11:30:46;102174.28;;;24.26
67509;BMP280;54354;44.724;11.284;2022-10-31T11:33:37;102161.84;;;24.35
67509;BMP280;54354;44.724;11.284;2022-10-31T11:36:17;102167.50;;;24.37
67509;BMP280;54354;44.724;11.284;2022-10-31T11:38:44;102167.78;;;24.39
67509;BMP280;54354;44.724;11.284;2022-10-31T11:41:13;102167.06;;;24.38
67509;BMP280;54354;44.724;11.284;2022-10-31T11:43:54;102171.03;;;24.43
67509;BMP280;54354;44.724;11.284;2022-10-31T11:46:26;102158.06;;;24.47
67509;BMP280;54354;44.724;11.284;2022-10-31T11:48:54;102154.41;;;24.50
67509;BMP280;54354;44.724;11.284;2022-10-31T11:51:26;102152.00;;;24.52
67509;BMP280;54354;44.724;11.284;2022-10-31T11:53:55;102154.00;;;24.57
67509;BMP280;54354;44.724;11.284;2022-10-31T11:56:21;102153.34;;;24.62
67509;BMP280;54354;44.724;11.284;2022-10-31T11:58:57;102153.88;;;24.66
67509;BMP280;54354;44.724;11.284;2022-10-31T12:01:29;102149.03;;;24.70
67509;BMP280;54354;44.724;11.284;2022-10-31T12:04:11;102143.19;;;24.77
67509;BMP280;54354;44.724;11.284;2022-10-31T12:06:48;102147.34;;;24.78
67509;BMP280;54354;44.724;11.284;2022-10-31T12:09:33;102143.03;;;24.86
67509;BMP280;54354;44.724;11.284;2022-10-31T12:17:21;102130.28;;;24.93
67509;BMP280;54354;44.724;11.284;2022-10-31T12:23:20;102122.06;;;25.07
67509;BMP280;54354;44.724;11.284;2022-10-31T12:47:48;102116.06;;;25.24
67509;BMP280;54354;44.724;11.284;2022-10-31T12:56:36;102114.16;;;25.30
67509;BMP280;54354;44.724;11.284;2022-10-31T12:59:16;102113.88;;;25.28
67509;BMP280;54354;44.724;11.284;2022-10-31T13:01:47;102116.66;;;25.33
67509;BMP280;54354;44.724;11.284;2022-10-31T13:07:00;102110.06;;;25.40
67509;BMP280;54354;44.724;11.284;2022-10-31T13:09:37;102099.72;;;25.44
67509;BMP280;54354;44.724;11.284;2022-10-31T13:12:08;102094.84;;;25.48
67509;BMP280;54354;44.724;11.284;2022-10-31T13:14:42;102095.34;;;25.52
67509;BMP280;54354;44.724;11.284;2022-10-31T13:17:36;102095.91;;;25.56
67509;BMP280;54354;44.724;11.284;2022-10-31T13:22:49;102088.31;;;25.66
67509;BMP280;54354;44.724;11.284;2022-10-31T13:25:23;102088.53;;;25.68
67509;BMP280;54354;44.724;11.284;2022-10-31T13:28:05;102077.97;;;25.70
67509;BMP280;54354;44.724;11.284;2022-10-31T13:30:38;102087.13;;;25.72
67509;BMP280;54354;44.724;11.284;2022-10-31T13:33:17;102076.53;;;25.74
67509;BMP280;54354;44.724;11.284;2022-10-31T13:46:39;102077.03;;;25.78
67509;BMP280;54354;44.724;11.284;2022-10-31T13:49:36;102071.91;;;25.80
67509;BMP280;54354;44.724;11.284;2022-10-31T13:54:46;102070.38;;;25.79
67509;BMP280;54354;44.724;11.284;2022-10-31T13:57:34;102068.16;;;25.78
67509;BMP280;54354;44.724;11.284;2022-10-31T14:02:52;102065.44;;;25.78
67509;BMP280;54354;44.724;11.284;2022-10-31T14:05:31;102060.00;;;25.78
67509;BMP280;54354;44.724;11.284;2022-10-31T14:08:00;102061.75;;;25.81
67509;BMP280;54354;44.724;11.284;2022-10-31T14:13:18;102072.16;;;25.88
67509;BMP280;54354;44.724;11.284;2022-10-31T14:15:58;102061.06;;;25.86
67509;BMP280;54354;44.724;11.284;2022-10-31T14:20:55;102061.84;;;25.92
67509;BMP280;54354;44.724;11.284;2022-10-31T14:28:42;102056.88;;;25.91
67509;BMP280;54354;44.724;11.284;2022-10-31T14:33:59;102050.94;;;25.87
67509;BMP280;54354;44.724;11.284;2022-10-31T14:39:18;102050.22;;;25.86
67509;BMP280;54354;44.724;11.284;2022-10-31T14:47:27;102038.38;;;25.89
67509;BMP280;54354;44.724;11.284;2022-10-31T14:52:28;102046.97;;;25.88
67509;BMP280;54354;44.724;11.284;2022-10-31T14:54:55;102047.25;;;25.84
67509;BMP280;54354;44.724;11.284;2022-10-31T14:57:33;102045.47;;;25.81
67509;BMP280;54354;44.724;11.284;2022-10-31T15:00:26;102051.94;;;25.89
67509;BMP280;54354;44.724;11.284;2022-10-31T15:03:16;102052.66;;;25.84
67509;BMP280;54354;44.724;11.284;2022-10-31T15:05:52;102051.38;;;25.79
67509;BMP280;54354;44.724;11.284;2022-10-31T15:08:43;102054.88;;;25.80
67509;BMP280;54354;44.724;11.284;2022-10-31T15:11:14;102053.06;;;25.71
67509;BMP280;54354;44.724;11.284;2022-10-31T15:13:45;102045.91;;;25.68
67509;BMP280;54354;44.724;11.284;2022-10-31T15:16:11;102042.41;;;25.68
67509;BMP280;54354;44.724;11.284;2022-10-31T15:18:46;102046.63;;;25.63
67509;BMP280;54354;44.724;11.284;2022-10-31T15:21:15;102054.00;;;25.63
67509;BMP280;54354;44.724;11.284;2022-10-31T15:23:42;102049.78;;;25.62
67509;BMP280;54354;44.724;11.284;2022-10-31T15:26:16;102049.00;;;25.56
67509;BMP280;54354;44.724;11.284;2022-10-31T15:28:42;102038.94;;;25.56
67509;BMP280;54354;44.724;11.284;2022-10-31T15:31:16;102034.94;;;25.52
67509;BMP280;54354;44.724;11.284;2022-10-31T15:33:46;102032.44;;;25.48
67509;BMP280;54354;44.724;11.284;2022-10-31T15:36:18;102036.38;;;25.84
67509;BMP280;54354;44.724;11.284;2022-10-31T15:38:44;102033.72;;;25.58
67509;BMP280;54354;44.724;11.284;2022-10-31T15:42:13;102028.72;;;25.45
67509;BMP280;54354;44.724;11.284;2022-10-31T15:44:15;102026.94;;;25.37
67509;BMP280;54354;44.724;11.284;2022-10-31T15:46:42;102025.47;;;25.36
67509;BMP280;54354;44.724;11.284;2022-10-31T15:49:47;102020.72;;;25.31
67509;BMP280;54354;44.724;11.284;2022-10-31T15:52:16;102021.16;;;25.24
67509;BMP280;54354;44.724;11.284;2022-10-31T15:54:47;102020.38;;;25.17
67509;BMP280;54354;44.724;11.284;2022-10-31T15:57:13;102024.06;;;25.14
67509;BMP280;54354;44.724;11.284;2022-10-31T15:59:41;102026.44;;;25.07
67509;BMP280;54354;44.724;11.284;2022-10-31T16:02:10;102027.88;;;25.02
67509;BMP280;54354;44.724;11.284;2022-10-31T16:04:35;102033.50;;;24.99
67509;BMP280;54354;44.724;11.284;2022-10-31T16:07:14;102026.56;;;24.92
67509;BMP280;54354;44.724;11.284;2022-10-31T16:12:15;102036.09;;;24.82
67509;BMP280;54354;44.724;11.284;2022-10-31T16:14:41;102039.94;;;24.75
67509;BMP280;54354;44.724;11.284;2022-10-31T16:17:11;102037.88;;;24.65
67509;BMP280;54354;44.724;11.284;2022-10-31T16:20:05;102042.50;;;24.58
67509;BMP280;54354;44.724;11.284;2022-10-31T16:22:33;102045.66;;;24.57
67509;BMP280;54354;44.724;11.284;2022-10-31T16:25:15;102043.66;;;24.52
67509;BMP280;54354;44.724;11.284;2022-10-31T16:27:48;102049.47;;;24.45
67509;BMP280;54354;44.724;11.284;2022-10-31T16:30:38;102044.03;;;24.45
67509;BMP280;54354;44.724;11.284;2022-10-31T16:33:05;102055.75;;;24.36
67509;BMP280;54354;44.724;11.284;2022-10-31T16:35:44;102065.31;;;24.32
67509;BMP280;54354;44.724;11.284;2022-10-31T16:38:10;102062.06;;;24.27
67509;BMP280;54354;44.724;11.284;2022-10-31T16:40:37;102054.78;;;24.19
67509;BMP280;54354;44.724;11.284;2022-10-31T16:43:03;102053.78;;;24.16
67509;BMP280;54354;44.724;11.284;2022-10-31T16:45:30;102058.66;;;24.12
67509;BMP280;54354;44.724;11.284;2022-10-31T16:48:10;102063.03;;;24.10
67509;BMP280;54354;44.724;11.284;2022-10-31T16:50:37;102062.31;;;24.09
67509;BMP280;54354;44.724;11.284;2022-10-31T16:53:03;102059.50;;;24.04
67509;BMP280;54354;44.724;11.284;2022-10-31T16:55:28;102064.66;;;24.02